createdAt,value
2018-12-30T00:00:50.237Z,1.98
2018-12-30T00:04:09.453Z,2.17
2018-12-30T00:07:04.622Z,2.20
2018-12-30T00:10:01.450Z,2.08
2018-12-30T00:13:01.539Z,1.95
2018-12-30T00:15:53.196Z,2.15
2018-12-30T00:18:38.418Z,2.27
2018-12-30T00:21:47.447Z,2.70
2018-12-30T00:24:30.067Z,2.30
2018-12-30T00:27:31.902Z,2.50
2018-12-30T00:30:29.556Z,2.83
2018-12-30T00:33:12.095Z,3.20
2018-12-30T00:35:41.744Z,2.22
2018-12-30T00:38:13.633Z,2.50
2018-12-30T00:40:43.090Z,2.62
2018-12-30T00:43:12.524Z,3.37
2018-12-30T00:45:42.010Z,2.80
2018-12-30T00:48:13.907Z,3.35
2018-12-30T00:50:46.009Z,2.95
2018-12-30T00:53:46.411Z,2.75
2018-12-30T00:56:13.943Z,2.65
2018-12-30T00:59:02.541Z,3.00
2018-12-30T01:01:37.711Z,2.52
2018-12-30T01:04:18.156Z,2.50
2018-12-30T01:06:46.127Z,3.05
2018-12-30T01:09:16.970Z,3.05
2018-12-30T01:11:51.178Z,4.00
2018-12-30T01:14:25.517Z,3.72
2018-12-30T01:16:59.861Z,3.12
2018-12-30T01:19:41.250Z,3.85
2018-12-30T01:22:17.405Z,3.72
2018-12-30T01:24:48.349Z,3.72
2018-12-30T01:27:18.222Z,3.90
2018-12-30T01:29:58.188Z,4.03
2018-12-30T01:32:31.050Z,3.80
2018-12-30T01:35:05.406Z,4.40
2018-12-30T01:37:42.633Z,4.33
2018-12-30T01:40:12.103Z,3.75
2018-12-30T01:42:44.922Z,3.80
2018-12-30T01:45:24.944Z,4.20
2018-12-30T01:48:10.238Z,4.28
2018-12-30T01:51:14.008Z,3.85
2018-12-30T01:53:57.859Z,4.20
2018-12-30T01:56:54.446Z,4.62
2018-12-30T01:59:48.279Z,5.37
2018-12-30T02:03:00.880Z,3.85
2018-12-30T02:06:06.859Z,3.52
2018-12-30T02:11:37.995Z,3.90
2018-12-30T02:14:07.442Z,3.77
2018-12-30T02:16:38.782Z,3.83
2018-12-30T02:19:07.944Z,4.62
2018-12-30T02:21:41.086Z,3.30
2018-12-30T02:24:16.506Z,3.40
2018-12-30T02:26:58.400Z,4.33
2018-12-30T02:29:36.621Z,4.05
2018-12-30T02:32:12.879Z,3.90
2018-12-30T02:34:50.215Z,3.65
2018-12-30T02:37:21.488Z,3.52
2018-12-30T02:39:51.232Z,4.08
2018-12-30T02:42:34.486Z,3.75
2018-12-30T02:45:07.855Z,3.65
2018-12-30T02:47:44.334Z,3.58
2018-12-30T02:50:26.786Z,3.02
2018-12-30T02:53:10.139Z,3.60
2018-12-30T02:56:06.454Z,3.22
2018-12-30T02:58:36.503Z,2.85
2018-12-30T03:01:14.476Z,2.55
2018-12-30T03:03:46.735Z,3.35
2018-12-30T03:06:26.240Z,3.42
2018-12-30T03:09:00.156Z,2.75
2018-12-30T03:11:36.030Z,3.35
2018-12-30T03:14:10.217Z,2.50
2018-12-30T03:16:39.485Z,2.87
2018-12-30T03:19:17.210Z,2.50
2018-12-30T03:21:59.174Z,2.98
2018-12-30T03:24:31.132Z,3.08
2018-12-30T03:27:00.680Z,2.20
2018-12-30T03:29:32.135Z,3.12
2018-12-30T03:32:01.678Z,2.70
2018-12-30T03:34:33.766Z,2.70
2018-12-30T03:37:03.149Z,2.50
2018-12-30T03:39:44.052Z,2.30
2018-12-30T03:42:35.406Z,2.55
2018-12-30T03:45:13.791Z,2.25
2018-12-30T03:47:50.001Z,1.50
2018-12-30T03:50:31.819Z,2.15
2018-12-30T03:53:11.299Z,1.90
2018-12-30T03:55:50.797Z,2.08
2018-12-30T03:58:41.277Z,2.00
2018-12-30T04:01:17.742Z,2.00
2018-12-30T04:03:57.008Z,1.50
2018-12-30T04:06:51.150Z,1.55
2018-12-30T04:09:30.753Z,1.80
2018-12-30T04:12:13.465Z,1.50
2018-12-30T04:14:57.871Z,1.32
2018-12-30T04:17:34.579Z,1.70
2018-12-30T04:20:20.119Z,1.32
2018-12-30T04:23:10.080Z,1.22
2018-12-30T04:25:53.139Z,1.30
2018-12-30T04:28:35.154Z,1.30
2018-12-30T04:31:31.175Z,1.10
2018-12-30T04:34:15.703Z,1.70
2018-12-30T04:40:08.786Z,1.50
2018-12-30T04:42:47.809Z,1.05
2018-12-30T04:45:28.273Z,1.00
2018-12-30T04:48:01.785Z,1.40
2018-12-30T04:50:40.661Z,1.52
2018-12-30T04:53:27.436Z,1.30
2018-12-30T04:55:57.335Z,1.20
2018-12-30T04:58:45.826Z,1.20
2018-12-30T05:01:27.262Z,1.57
2018-12-30T05:04:13.784Z,1.50
2018-12-30T05:06:52.935Z,1.30
2018-12-30T05:09:21.403Z,1.60
2018-12-30T05:11:57.282Z,1.72
2018-12-30T05:14:37.082Z,1.32
2018-12-30T05:17:11.194Z,1.45
2018-12-30T05:19:51.432Z,2.30
2018-12-30T05:22:33.750Z,1.40
2018-12-30T05:25:39.482Z,1.30
2018-12-30T05:28:15.193Z,1.10
2018-12-30T05:30:58.595Z,1.47
2018-12-30T05:33:46.851Z,1.22
2018-12-30T05:36:54.075Z,1.10
2018-12-30T05:39:33.402Z,1.12
2018-12-30T05:42:16.052Z,1.05
2018-12-30T05:45:18.185Z,1.52
2018-12-30T05:48:08.315Z,1.20
2018-12-30T05:50:57.015Z,1.15
2018-12-30T05:54:06.019Z,1.10
2018-12-30T05:57:30.746Z,1.20
2018-12-30T06:00:56.143Z,1.60
2018-12-30T06:04:15.006Z,1.10
2018-12-30T06:07:47.352Z,1.72
2018-12-30T06:10:28.263Z,1.55
2018-12-30T06:13:07.843Z,1.65
2018-12-30T06:15:56.935Z,2.00
2018-12-30T06:22:09.202Z,1.75
2018-12-30T06:24:43.805Z,2.72
2018-12-30T06:27:21.922Z,1.90
2018-12-30T06:29:51.397Z,2.08
2018-12-30T06:32:20.900Z,1.70
2018-12-30T06:34:56.889Z,1.90
2018-12-30T06:37:28.238Z,1.50
2018-12-30T06:40:11.085Z,1.70
2018-12-30T06:43:00.964Z,1.52
2018-12-30T06:45:40.890Z,1.50
2018-12-30T06:48:07.488Z,2.00
2018-12-30T06:50:36.803Z,1.17
2018-12-30T06:53:06.083Z,1.42
2018-12-30T06:55:36.343Z,1.30
2018-12-30T06:58:11.780Z,1.37
2018-12-30T07:00:50.681Z,1.37
2018-12-30T07:04:00.304Z,1.40
2018-12-30T07:07:48.265Z,1.30
2018-12-30T07:47:01.143Z,2.12
2018-12-30T07:50:17.406Z,2.58
2018-12-30T07:52:48.891Z,3.22
2018-12-30T07:55:18.421Z,3.00
2018-12-30T07:58:11.819Z,2.50
2018-12-30T08:01:07.067Z,3.02
2018-12-30T08:03:41.122Z,3.10
2018-12-30T08:18:40.780Z,3.05
2018-12-30T08:21:24.916Z,2.90
2018-12-30T08:23:59.295Z,3.00
2018-12-30T08:26:37.892Z,2.87
2018-12-30T08:29:28.653Z,2.85
2018-12-30T08:32:19.381Z,3.40
2018-12-30T08:34:49.107Z,2.72
2018-12-30T08:37:18.280Z,2.35
2018-12-30T08:39:47.460Z,2.75
2018-12-30T09:07:18.435Z,1.60
2018-12-30T09:52:10.129Z,1.47
2018-12-30T10:19:58.650Z,2.50
2018-12-30T10:23:03.098Z,2.72
2018-12-30T10:25:42.223Z,3.60
2018-12-30T10:28:11.753Z,3.15
2018-12-30T10:30:44.508Z,2.80
2018-12-30T10:33:26.034Z,2.65
2018-12-30T10:36:04.419Z,2.65
2018-12-30T10:38:33.646Z,3.22
2018-12-30T10:41:02.828Z,2.60
2018-12-30T10:43:31.928Z,2.75
2018-12-30T10:46:01.073Z,2.65
2018-12-30T10:48:30.229Z,3.83
2018-12-30T10:54:27.343Z,3.83
2018-12-30T16:32:04.367Z,2.70
2018-12-30T16:45:23.108Z,2.30
2018-12-30T16:48:54.388Z,1.90
2018-12-30T16:55:43.735Z,3.83
2018-12-30T16:58:15.927Z,2.45
2018-12-30T17:00:45.147Z,2.67
2018-12-30T17:03:16.371Z,2.67
2018-12-30T17:05:45.361Z,3.17
2018-12-30T17:08:14.686Z,2.65
2018-12-30T17:10:43.864Z,2.67
2018-12-30T17:13:13.015Z,2.50
2018-12-30T17:15:42.187Z,2.92
2018-12-30T17:18:11.419Z,2.80
2018-12-30T17:20:41.975Z,2.87
2018-12-30T17:23:11.298Z,3.70
2018-12-30T17:25:43.174Z,2.70
2018-12-30T17:28:11.979Z,3.10
2018-12-30T17:32:39.950Z,2.92
2018-12-30T17:33:37.603Z,3.10
2018-12-30T17:36:12.573Z,3.00
2018-12-30T17:39:13.972Z,3.10
2018-12-30T17:45:12.661Z,5.30
2018-12-30T17:47:41.898Z,4.08
2018-12-30T17:51:53.959Z,3.20
2018-12-30T17:54:26.261Z,3.40
2018-12-30T17:56:58.342Z,3.90
2018-12-30T17:59:31.288Z,3.52
2018-12-30T18:40:18.242Z,3.15
2018-12-30T18:42:59.509Z,4.72
2018-12-30T18:45:38.453Z,3.45
2018-12-30T18:49:11.489Z,3.90
2018-12-30T19:06:19.787Z,4.37
2018-12-30T19:16:26.370Z,3.77
2018-12-30T19:22:58.355Z,4.17
2018-12-30T19:25:29.224Z,3.80
2018-12-30T19:27:58.506Z,3.80
2018-12-30T19:30:27.768Z,4.72
2018-12-30T19:32:57.113Z,5.10
2018-12-30T19:46:59.646Z,4.35
2018-12-30T19:49:32.842Z,4.10
2018-12-30T19:52:03.126Z,4.95
2018-12-30T19:54:33.072Z,3.45
2018-12-30T19:58:01.009Z,4.25
2018-12-30T20:00:33.016Z,4.03
2018-12-30T20:03:02.272Z,4.03
2018-12-30T20:05:31.721Z,4.00
2018-12-30T20:08:03.248Z,4.25
2018-12-30T20:10:42.649Z,4.12
2018-12-30T20:14:05.374Z,4.03
2018-12-30T20:17:20.308Z,4.28
2018-12-30T20:28:02.632Z,5.05
2018-12-30T20:31:26.030Z,3.95
2018-12-30T21:32:04.584Z,3.35
2018-12-30T21:34:42.213Z,3.45
2018-12-30T21:52:58.001Z,6.20
2018-12-30T21:59:30.369Z,3.83
2018-12-30T23:13:41.087Z,4.25
2018-12-30T23:16:36.002Z,5.10
2018-12-30T23:19:33.378Z,8.60
2018-12-30T23:22:29.992Z,8.18
2018-12-30T23:25:09.774Z,7.60
2018-12-30T23:27:51.107Z,7.05
2018-12-30T23:30:40.156Z,6.90
2018-12-30T23:33:11.756Z,7.33
2018-12-30T23:35:54.796Z,6.20
2018-12-30T23:38:39.914Z,5.97
2018-12-30T23:41:16.960Z,5.35
2018-12-30T23:43:51.533Z,4.03
2018-12-30T23:46:26.130Z,5.25
2018-12-30T23:49:04.905Z,4.90
2018-12-30T23:51:59.569Z,4.55
2018-12-30T23:54:34.827Z,4.92
2018-12-30T23:57:07.728Z,5.10
2018-12-30T23:59:41.376Z,5.47
